createdAt,value
2019-05-11T00:01:04.644Z,20.23
2019-05-11T00:03:35.126Z,14.97
2019-05-11T00:06:05.451Z,18.87
2019-05-11T00:08:36.052Z,12.97
2019-05-11T00:11:06.656Z,13.43
2019-05-11T00:13:37.265Z,15.13
2019-05-11T00:16:07.673Z,19.87
2019-05-11T00:18:38.187Z,9.57
2019-05-11T00:21:08.684Z,11.07
2019-05-11T00:23:40.137Z,9.00
2019-05-11T00:26:10.706Z,11.67
2019-05-11T00:28:41.262Z,12.60
2019-05-11T00:31:11.781Z,8.13
2019-05-11T00:33:42.211Z,11.97
2019-05-11T00:36:12.524Z,13.07
2019-05-11T00:38:42.861Z,13.40
2019-05-11T00:41:13.287Z,7.67
2019-05-11T00:43:43.616Z,12.13
2019-05-11T00:46:14.024Z,13.13
2019-05-11T00:48:44.556Z,7.37
2019-05-11T00:51:15.101Z,9.57
2019-05-11T00:53:45.791Z,13.30
2019-05-11T00:56:16.208Z,6.80
2019-05-11T00:58:50.774Z,7.67
2019-05-11T01:01:19.745Z,5.13
2019-05-11T01:03:49.933Z,8.17
2019-05-11T01:06:20.526Z,5.07
2019-05-11T01:08:51.032Z,6.80
2019-05-11T01:11:21.374Z,4.87
2019-05-11T01:13:51.815Z,6.27
2019-05-11T01:16:22.098Z,8.23
2019-05-11T01:18:52.403Z,8.10
2019-05-11T01:21:23.060Z,7.80
2019-05-11T01:23:53.441Z,9.47
2019-05-11T01:26:24.087Z,6.33
2019-05-11T01:28:54.713Z,3.60
2019-05-11T01:31:25.283Z,6.33
2019-05-11T01:33:55.794Z,7.27
2019-05-11T01:36:26.440Z,9.53
2019-05-11T01:38:57.007Z,8.00
2019-05-11T01:41:27.347Z,14.00
2019-05-11T01:43:57.819Z,5.70
2019-05-11T01:46:28.208Z,3.93
2019-05-11T01:48:59.032Z,6.87
2019-05-11T01:51:30.577Z,8.90
2019-05-11T01:54:05.164Z,8.53
2019-05-11T01:56:36.036Z,3.27
2019-05-11T01:59:09.419Z,4.93
2019-05-11T02:01:39.881Z,3.43
2019-05-11T02:04:10.433Z,7.23
2019-05-11T02:06:40.867Z,4.93
2019-05-11T02:09:11.292Z,6.30
2019-05-11T02:11:41.751Z,3.60
2019-05-11T02:14:12.102Z,5.20
2019-05-11T02:16:42.507Z,2.40
2019-05-11T02:19:12.922Z,3.97
2019-05-11T02:21:43.456Z,4.47
2019-05-11T02:24:13.656Z,6.40
2019-05-11T02:26:43.982Z,4.27
2019-05-11T02:29:14.470Z,2.00
2019-05-11T02:31:45.813Z,4.40
2019-05-11T02:34:16.060Z,5.83
2019-05-11T02:36:46.442Z,4.63
2019-05-11T02:39:18.014Z,4.00
2019-05-11T02:41:48.536Z,2.90
2019-05-11T02:44:18.789Z,2.17
2019-05-11T02:46:51.236Z,4.20
2019-05-11T02:49:21.655Z,8.90
2019-05-11T02:51:52.401Z,7.73
2019-05-11T02:54:22.868Z,9.73
2019-05-11T02:56:53.272Z,7.17
2019-05-11T02:59:29.059Z,10.13
2019-05-11T03:01:56.958Z,5.73
2019-05-11T03:04:28.819Z,3.53
2019-05-11T03:06:59.330Z,5.77
2019-05-11T03:09:30.082Z,6.37
2019-05-11T03:12:00.514Z,6.60
2019-05-11T03:14:30.842Z,5.40
2019-05-11T03:17:29.301Z,4.23
2019-05-11T03:19:59.757Z,5.73
2019-05-11T03:22:30.288Z,7.97
2019-05-11T03:25:00.506Z,5.83
2019-05-11T03:27:31.063Z,8.23
2019-05-11T03:30:02.333Z,7.67
2019-05-11T03:32:32.751Z,4.43
2019-05-11T03:35:04.083Z,6.97
2019-05-11T03:37:34.543Z,6.57
2019-05-11T03:40:05.006Z,4.43
2019-05-11T03:42:35.441Z,8.30
2019-05-11T03:45:06.000Z,4.07
2019-05-11T03:47:36.247Z,4.00
2019-05-11T03:50:06.986Z,3.50
2019-05-11T03:52:49.527Z,2.77
2019-05-11T03:55:19.913Z,4.37
2019-05-11T03:57:51.056Z,4.17
2019-05-11T04:00:21.630Z,2.87
2019-05-11T04:02:52.325Z,3.30
2019-05-11T04:05:23.258Z,3.13
2019-05-11T04:07:53.683Z,6.97
2019-05-11T04:10:25.367Z,2.33
2019-05-11T04:12:56.063Z,3.00
2019-05-11T04:15:26.429Z,3.53
2019-05-11T04:17:57.843Z,5.87
2019-05-11T04:20:28.070Z,6.20
2019-05-11T04:22:58.342Z,4.03
2019-05-11T04:25:29.064Z,2.60
2019-05-11T04:28:00.258Z,5.03
2019-05-11T04:30:30.653Z,3.90
2019-05-11T04:33:00.980Z,1.77
2019-05-11T04:35:31.425Z,2.40
2019-05-11T04:38:02.212Z,2.93
2019-05-11T04:40:32.440Z,3.10
2019-05-11T04:43:02.692Z,1.90
2019-05-11T04:45:32.967Z,1.50
2019-05-11T04:48:03.221Z,1.80
2019-05-11T04:50:33.680Z,2.17
2019-05-11T04:53:04.060Z,2.77
2019-05-11T04:55:34.291Z,2.20
2019-05-11T04:58:04.979Z,1.80
2019-05-11T05:00:35.668Z,1.53
2019-05-11T05:03:06.269Z,2.97
2019-05-11T05:05:37.171Z,3.53
2019-05-11T05:08:09.935Z,6.53
2019-05-11T05:10:39.822Z,5.80
2019-05-11T05:13:10.867Z,5.40
2019-05-11T05:15:41.765Z,6.33
2019-05-11T05:18:11.966Z,7.50
2019-05-11T05:20:43.924Z,6.73
2019-05-11T05:23:14.665Z,17.70
2019-05-11T05:25:45.009Z,6.27
2019-05-11T05:28:15.144Z,8.30
2019-05-11T05:30:45.475Z,6.60
2019-05-11T05:33:15.611Z,5.63
2019-05-11T05:35:46.148Z,4.73
2019-05-11T05:38:16.589Z,4.70
2019-05-11T05:40:47.146Z,6.83
2019-05-11T05:43:26.041Z,6.50
2019-05-11T05:45:49.474Z,6.60
2019-05-11T05:48:19.745Z,8.70
2019-05-11T05:50:50.377Z,8.53
2019-05-11T05:53:20.584Z,8.07
2019-05-11T05:55:51.830Z,9.57
2019-05-11T05:58:22.243Z,10.47
2019-05-11T06:00:52.450Z,7.80
2019-05-11T06:03:22.764Z,4.63
2019-05-11T06:05:52.901Z,7.67
2019-05-11T06:08:23.746Z,5.00
2019-05-11T06:11:00.049Z,10.33
2019-05-11T06:13:44.510Z,8.10
2019-05-11T06:16:02.232Z,7.90
2019-05-11T06:18:32.531Z,6.67
2019-05-11T06:21:02.782Z,6.13
2019-05-11T06:23:33.098Z,10.17
2019-05-11T06:26:03.198Z,6.27
2019-05-11T06:28:33.637Z,10.33
2019-05-11T06:31:03.876Z,10.53
2019-05-11T06:33:34.237Z,5.80
2019-05-11T06:36:04.511Z,7.97
2019-05-11T06:38:34.774Z,11.03
2019-05-11T06:41:04.976Z,4.77
2019-05-11T06:43:35.162Z,11.57
2019-05-11T06:46:05.467Z,6.67
2019-05-11T06:48:35.622Z,8.53
2019-05-11T06:51:05.978Z,7.40
2019-05-11T06:53:36.181Z,9.80
2019-05-11T06:56:06.621Z,9.07
2019-05-11T06:58:37.375Z,8.60
2019-05-11T07:01:07.871Z,7.90
2019-05-11T07:03:38.100Z,7.20
2019-05-11T07:06:08.399Z,13.57
2019-05-11T07:08:38.766Z,8.00
2019-05-11T07:11:08.928Z,9.57
2019-05-11T07:13:39.180Z,7.57
2019-05-11T07:16:09.266Z,8.90
2019-05-11T07:18:39.426Z,9.20
2019-05-11T07:21:09.677Z,6.33
2019-05-11T07:23:39.907Z,7.73
2019-05-11T07:26:10.572Z,9.63
2019-05-11T07:28:41.312Z,10.60
2019-05-11T07:31:11.570Z,7.00
2019-05-11T07:33:41.746Z,6.53
2019-05-11T07:36:13.657Z,6.80
2019-05-11T07:38:44.088Z,9.00
2019-05-11T07:41:14.658Z,6.33
2019-05-11T07:43:45.139Z,7.60
2019-05-11T07:46:24.049Z,12.93
2019-05-11T07:48:54.415Z,8.97
2019-05-11T07:51:24.517Z,7.13
2019-05-11T07:53:54.697Z,7.70
2019-05-11T07:56:24.973Z,8.80
2019-05-11T07:58:55.252Z,3.53
2019-05-11T08:01:27.939Z,5.67
2019-05-11T08:04:00.966Z,5.97
2019-05-11T08:06:31.176Z,9.53
2019-05-11T08:09:05.208Z,4.00
2019-05-11T08:11:35.795Z,5.03
2019-05-11T08:14:07.747Z,4.10
2019-05-11T08:16:39.154Z,3.70
2019-05-11T08:19:12.928Z,4.70
2019-05-11T08:21:43.279Z,5.10
2019-05-11T08:24:13.631Z,3.27
2019-05-11T08:26:44.621Z,3.47
2019-05-11T08:29:14.978Z,5.60
2019-05-11T08:31:45.434Z,5.00
2019-05-11T08:34:17.887Z,5.20
2019-05-11T08:36:48.130Z,2.33
2019-05-11T08:39:18.451Z,6.10
2019-05-11T08:41:48.908Z,5.30
2019-05-11T08:44:19.150Z,6.90
2019-05-11T08:46:49.366Z,5.90
2019-05-11T08:49:19.670Z,2.60
2019-05-11T08:51:50.069Z,2.73
2019-05-11T08:54:20.559Z,5.70
2019-05-11T08:56:50.784Z,4.40
2019-05-11T08:59:21.088Z,3.00
2019-05-11T09:01:51.653Z,3.30
2019-05-11T09:04:21.785Z,4.50
2019-05-11T09:06:51.895Z,2.50
2019-05-11T09:09:22.282Z,3.93
2019-05-11T09:11:55.475Z,4.83
2019-05-11T09:14:28.165Z,4.00
2019-05-11T09:16:57.872Z,5.23
2019-05-11T09:19:28.703Z,4.73
2019-05-11T09:21:59.059Z,8.23
2019-05-11T09:24:31.387Z,3.20
2019-05-11T09:27:01.640Z,3.70
2019-05-11T09:29:32.996Z,3.57
2019-05-11T09:32:03.608Z,2.90
2019-05-11T09:34:33.900Z,5.63
2019-05-11T09:37:04.245Z,7.17
2019-05-11T09:39:34.592Z,3.43
2019-05-11T09:42:04.974Z,5.43
2019-05-11T09:44:35.361Z,6.93
2019-05-11T09:47:08.113Z,6.80
2019-05-11T09:49:46.694Z,4.30
2019-05-11T09:52:09.510Z,3.50
2019-05-11T09:54:39.670Z,3.07
2019-05-11T09:57:10.079Z,3.10
2019-05-11T09:59:40.523Z,3.50
2019-05-11T10:02:11.062Z,3.97
2019-05-11T10:04:41.653Z,5.43
2019-05-11T10:07:11.775Z,4.53
2019-05-11T10:09:42.214Z,2.30
2019-05-11T10:12:12.773Z,5.30
2019-05-11T10:14:43.041Z,4.47
2019-05-11T10:17:13.381Z,4.07
2019-05-11T10:19:46.769Z,4.13
2019-05-11T10:22:15.733Z,4.47
2019-05-11T10:24:47.718Z,6.10
2019-05-11T10:27:18.924Z,4.17
2019-05-11T10:29:49.353Z,4.70
2019-05-11T10:32:19.679Z,4.13
2019-05-11T10:34:49.939Z,2.97
2019-05-11T10:37:20.097Z,5.53
2019-05-11T10:39:50.285Z,5.57
2019-05-11T10:42:20.405Z,3.27
2019-05-11T10:44:50.504Z,6.23
2019-05-11T10:47:21.116Z,7.70
2019-05-11T10:49:51.387Z,3.63
2019-05-11T10:52:21.541Z,4.37
2019-05-11T10:54:51.836Z,3.20
2019-05-11T10:57:21.951Z,2.83
2019-05-11T10:59:52.257Z,5.30
2019-05-11T11:02:22.557Z,4.93
2019-05-11T11:04:52.613Z,3.60
2019-05-11T11:07:22.905Z,3.63
2019-05-11T11:09:53.832Z,8.03
2019-05-11T11:12:24.158Z,3.87
2019-05-11T11:14:54.277Z,4.90
2019-05-11T11:17:24.389Z,3.80
2019-05-11T11:19:54.638Z,3.80
2019-05-11T11:22:38.962Z,4.47
2019-05-11T11:24:58.887Z,8.20
2019-05-11T11:27:29.227Z,4.93
2019-05-11T11:29:59.857Z,5.63
2019-05-11T11:32:30.941Z,3.40
2019-05-11T11:35:01.281Z,3.73
2019-05-11T11:37:31.788Z,5.03
2019-05-11T11:40:01.991Z,3.67
2019-05-11T11:42:32.248Z,4.87
2019-05-11T11:45:02.742Z,4.37
2019-05-11T11:47:33.413Z,4.53
2019-05-11T11:50:03.987Z,5.90
2019-05-11T11:52:34.184Z,5.80
2019-05-11T11:55:05.214Z,5.70
2019-05-11T11:57:37.769Z,2.63
2019-05-11T12:00:09.144Z,6.80
2019-05-11T12:02:40.496Z,5.47
2019-05-11T12:05:10.733Z,9.17
2019-05-11T12:07:43.722Z,7.33
2019-05-11T12:10:14.828Z,4.03
2019-05-11T12:12:47.590Z,6.33
2019-05-11T12:15:18.297Z,6.40
2019-05-11T12:17:48.548Z,5.30
2019-05-11T12:20:19.215Z,4.57
2019-05-11T12:22:49.430Z,4.23
2019-05-11T12:25:19.841Z,7.27
2019-05-11T12:27:50.228Z,8.60
2019-05-11T12:30:20.536Z,4.33
2019-05-11T12:32:50.667Z,5.63
2019-05-11T12:35:21.058Z,5.90
2019-05-11T12:37:51.342Z,3.47
2019-05-11T12:40:21.831Z,6.47
2019-05-11T12:42:52.129Z,3.80
2019-05-11T12:45:23.459Z,4.10
2019-05-11T12:47:53.772Z,8.60
2019-05-11T12:50:24.201Z,7.80
2019-05-11T12:52:56.102Z,8.37
2019-05-11T12:55:28.650Z,4.50
2019-05-11T12:57:58.551Z,5.73
2019-05-11T13:00:31.454Z,5.10
2019-05-11T13:03:00.690Z,7.63
2019-05-11T13:05:39.063Z,4.97
2019-05-11T13:08:09.382Z,8.83
2019-05-11T13:10:39.689Z,9.90
2019-05-11T13:13:10.138Z,4.70
2019-05-11T13:15:40.353Z,5.00
2019-05-11T13:18:10.518Z,6.17
2019-05-11T13:20:40.851Z,7.27
2019-05-11T13:23:23.708Z,4.30
2019-05-11T13:25:58.513Z,8.70
2019-05-11T13:28:28.728Z,5.50
2019-05-11T13:30:59.484Z,5.37
2019-05-11T13:33:33.154Z,4.97
2019-05-11T13:36:12.536Z,5.50
2019-05-11T13:38:42.743Z,5.07
2019-05-11T13:41:13.014Z,5.43
2019-05-11T13:43:43.287Z,8.20
2019-05-11T13:46:13.605Z,5.30
2019-05-11T13:48:43.858Z,5.87
2019-05-11T13:51:14.049Z,5.73
2019-05-11T13:53:44.203Z,13.47
2019-05-11T13:56:14.478Z,3.87
2019-05-11T13:58:44.820Z,3.90
2019-05-11T14:01:14.962Z,7.07
2019-05-11T14:03:48.107Z,8.30
2019-05-11T14:06:18.379Z,6.97
2019-05-11T14:08:49.130Z,6.57
2019-05-11T14:11:19.355Z,7.40
2019-05-11T14:13:49.774Z,7.20
2019-05-11T14:16:20.054Z,7.50
2019-05-11T14:18:50.298Z,10.60
2019-05-11T14:21:20.495Z,6.13
2019-05-11T14:23:51.157Z,5.13
2019-05-11T14:26:21.556Z,7.70
2019-05-11T14:28:51.711Z,5.80
2019-05-11T14:31:22.293Z,5.37
2019-05-11T14:33:53.144Z,8.53
2019-05-11T14:36:23.375Z,8.70
2019-05-11T14:38:54.185Z,7.63
2019-05-11T14:41:24.476Z,9.33
2019-05-11T14:43:54.654Z,6.27
2019-05-11T14:46:24.872Z,9.07
2019-05-11T14:48:55.076Z,8.10
2019-05-11T14:51:25.476Z,13.70
2019-05-11T14:53:57.374Z,9.80
2019-05-11T14:56:28.226Z,12.80
2019-05-11T14:58:58.660Z,10.37
2019-05-11T15:01:29.038Z,15.43
2019-05-11T15:03:59.391Z,8.03
2019-05-11T15:06:29.572Z,12.63
2019-05-11T15:08:59.922Z,6.00
2019-05-11T15:11:30.311Z,12.07
2019-05-11T15:14:00.508Z,7.23
2019-05-11T15:16:31.321Z,11.03
2019-05-11T15:19:01.530Z,14.93
2019-05-11T15:21:31.882Z,13.00
2019-05-11T15:24:02.498Z,15.00
2019-05-11T15:26:32.794Z,20.90
2019-05-11T15:29:03.206Z,10.50
2019-05-11T15:31:33.793Z,13.43
2019-05-11T15:34:04.193Z,11.97
2019-05-11T15:36:34.643Z,8.20
2019-05-11T15:39:07.744Z,21.17
2019-05-11T15:41:38.897Z,12.27
2019-05-11T15:44:11.917Z,10.13
2019-05-11T15:46:41.669Z,9.70
2019-05-11T15:49:11.928Z,11.23
2019-05-11T15:51:42.287Z,15.23
2019-05-11T15:54:12.474Z,9.80
2019-05-11T15:56:42.585Z,8.33
2019-05-11T15:59:13.085Z,16.70
2019-05-11T16:01:43.661Z,12.03
2019-05-11T16:04:14.333Z,7.50
2019-05-11T16:06:44.938Z,13.50
2019-05-11T16:09:15.057Z,6.70
2019-05-11T16:11:45.295Z,6.70
2019-05-11T16:14:16.275Z,11.90
2019-05-11T16:16:48.038Z,14.80
2019-05-11T16:19:19.271Z,13.90
2019-05-11T16:21:49.488Z,14.40
2019-05-11T16:24:19.744Z,14.73
2019-05-11T16:26:50.195Z,8.80
2019-05-11T16:29:20.652Z,8.60
2019-05-11T16:31:50.792Z,14.23
2019-05-11T16:34:20.941Z,10.43
2019-05-11T16:36:51.186Z,17.30
2019-05-11T16:39:22.884Z,13.23
2019-05-11T16:41:57.692Z,12.97
2019-05-11T16:44:27.475Z,8.50
2019-05-11T16:46:58.924Z,10.73
2019-05-11T16:49:32.384Z,11.13
2019-05-11T16:52:12.681Z,15.70
2019-05-11T16:54:43.016Z,10.93
2019-05-11T16:57:13.323Z,15.37
2019-05-11T16:59:43.783Z,20.23
2019-05-11T17:02:14.293Z,14.13
2019-05-11T17:04:47.958Z,13.80
2019-05-11T17:07:18.278Z,13.97
2019-05-11T17:09:48.551Z,11.87
2019-05-11T17:12:19.453Z,12.97
2019-05-11T17:14:59.584Z,9.43
2019-05-11T17:17:30.096Z,12.80
2019-05-11T17:20:00.240Z,12.10
2019-05-11T17:22:30.525Z,14.83
2019-05-11T17:25:00.700Z,17.50
2019-05-11T17:27:31.092Z,12.07
2019-05-11T17:30:01.823Z,9.37
2019-05-11T17:32:32.534Z,12.90
2019-05-11T17:35:02.739Z,15.67
2019-05-11T17:37:32.948Z,17.10
2019-05-11T17:40:03.426Z,16.57
2019-05-11T17:42:33.754Z,9.70
2019-05-11T17:45:04.126Z,11.73
2019-05-11T17:47:34.983Z,13.30
2019-05-11T17:50:08.119Z,14.00
2019-05-11T17:52:38.875Z,15.07
2019-05-11T17:55:09.280Z,12.67
2019-05-11T17:57:39.536Z,16.27
2019-05-11T18:00:10.743Z,13.00
2019-05-11T18:02:41.068Z,8.80
2019-05-11T18:05:11.481Z,23.00
2019-05-11T18:07:41.682Z,21.50
2019-05-11T18:10:12.321Z,13.80
2019-05-11T18:12:42.430Z,17.67
2019-05-11T18:15:14.182Z,13.03
2019-05-11T18:17:44.446Z,22.00
2019-05-11T18:20:18.601Z,14.43
2019-05-11T18:22:49.126Z,13.27
2019-05-11T18:25:19.654Z,15.50
2019-05-11T18:27:50.194Z,14.97
2019-05-11T18:30:20.659Z,16.07
2019-05-11T18:32:50.866Z,17.53
2019-05-11T18:35:21.962Z,17.00
2019-05-11T18:37:52.295Z,29.93
2019-05-11T18:40:23.399Z,11.23
2019-05-11T18:42:53.586Z,14.40
2019-05-11T18:45:24.268Z,14.27
2019-05-11T18:47:54.505Z,14.43
2019-05-11T18:50:30.375Z,21.63
2019-05-11T18:52:58.134Z,24.43
2019-05-11T18:55:28.644Z,18.20
2019-05-11T18:57:59.410Z,19.10
2019-05-11T19:00:29.529Z,9.47
2019-05-11T19:03:00.432Z,15.63
2019-05-11T19:05:30.802Z,18.43
2019-05-11T19:08:01.033Z,14.13
2019-05-11T19:10:38.403Z,15.50
2019-05-11T19:13:09.423Z,16.43
2019-05-11T19:15:39.992Z,10.73
2019-05-11T19:18:10.351Z,21.63
2019-05-11T19:20:45.703Z,23.47
2019-05-11T19:23:14.165Z,19.40
2019-05-11T19:25:44.640Z,21.07
2019-05-11T19:28:15.220Z,14.60
2019-05-11T19:30:45.911Z,12.50
2019-05-11T19:33:20.955Z,21.17
2019-05-11T19:35:51.922Z,7.03
2019-05-11T19:38:28.058Z,16.83
2019-05-11T19:40:59.071Z,18.93
2019-05-11T19:43:30.291Z,9.73
2019-05-11T19:46:00.584Z,14.50
2019-05-11T19:48:30.934Z,12.83
2019-05-11T19:51:07.791Z,9.90
2019-05-11T19:53:34.221Z,8.23
2019-05-11T19:56:04.507Z,13.33
2019-05-11T19:58:34.855Z,11.33
2019-05-11T20:01:08.445Z,18.70
2019-05-11T20:03:38.242Z,10.37
2019-05-11T20:06:09.026Z,18.23
2019-05-11T20:08:39.290Z,15.13
2019-05-11T20:11:10.420Z,8.13
2019-05-11T20:13:40.624Z,12.90
2019-05-11T20:16:11.417Z,8.40
2019-05-11T20:18:41.864Z,15.37
2019-05-11T20:21:19.161Z,14.40
2019-05-11T20:23:44.431Z,11.10
2019-05-11T20:26:17.932Z,13.03
2019-05-11T20:28:48.310Z,9.63
2019-05-11T20:31:18.873Z,9.60
2019-05-11T20:33:49.286Z,8.70
2019-05-11T20:36:19.662Z,9.73
2019-05-11T20:38:50.045Z,16.13
2019-05-11T20:41:20.394Z,10.83
2019-05-11T20:43:50.765Z,9.20
2019-05-11T20:46:24.223Z,20.83
2019-05-11T20:48:54.572Z,14.33
2019-05-11T20:51:36.531Z,15.83
2019-05-11T20:54:02.047Z,24.63
2019-05-11T20:56:34.850Z,16.73
2019-05-11T20:59:07.956Z,9.10
2019-05-11T21:01:39.109Z,11.53
2019-05-11T21:04:09.846Z,16.00
2019-05-11T21:06:40.655Z,13.43
2019-05-11T21:09:12.124Z,13.40
2019-05-11T21:11:42.468Z,16.17
2019-05-11T21:14:12.721Z,13.50
2019-05-11T21:16:43.025Z,10.63
2019-05-11T21:19:13.426Z,13.97
2019-05-11T21:21:50.205Z,16.00
2019-05-11T21:24:18.632Z,14.70
2019-05-11T21:26:48.774Z,9.67
2019-05-11T21:29:19.226Z,20.00
2019-05-11T21:31:49.912Z,12.73
2019-05-11T21:34:20.049Z,11.33
2019-05-11T21:36:51.045Z,12.10
2019-05-11T21:39:25.729Z,10.13
2019-05-11T21:42:07.908Z,19.97
2019-05-11T21:44:38.466Z,14.10
2019-05-11T21:47:08.695Z,13.80
2019-05-11T21:49:39.164Z,16.53
2019-05-11T21:52:09.757Z,10.67
2019-05-11T21:54:41.426Z,10.43
2019-05-11T21:57:12.006Z,14.27
2019-05-11T21:59:42.450Z,15.07
2019-05-11T22:02:13.060Z,15.10
2019-05-11T22:04:43.474Z,17.67
2019-05-11T22:07:14.013Z,19.97
2019-05-11T22:09:44.319Z,10.50
2019-05-11T22:12:15.120Z,12.33
2019-05-11T22:14:50.993Z,8.43
2019-05-11T22:17:21.993Z,11.30
2019-05-11T22:19:52.741Z,14.83
2019-05-11T22:22:25.361Z,11.70
2019-05-11T22:24:54.982Z,14.47
2019-05-11T22:27:27.657Z,14.37
2019-05-11T22:29:58.925Z,13.73
2019-05-11T22:32:29.577Z,12.10
2019-05-11T22:34:59.974Z,11.33
2019-05-11T22:37:30.154Z,7.67
2019-05-11T22:40:00.309Z,11.00
2019-05-11T22:42:30.594Z,13.00
2019-05-11T22:45:01.067Z,11.43
2019-05-11T22:47:31.884Z,13.50
2019-05-11T22:50:02.634Z,21.67
2019-05-11T22:52:36.563Z,8.70
2019-05-11T22:55:08.969Z,9.27
2019-05-11T22:57:39.061Z,16.73
2019-05-11T23:00:10.953Z,14.83
2019-05-11T23:02:41.119Z,13.23
2019-05-11T23:05:30.425Z,12.47
2019-05-11T23:08:00.779Z,14.03
2019-05-11T23:10:31.378Z,12.33
2019-05-11T23:13:02.574Z,11.60
2019-05-11T23:15:33.212Z,18.97
2019-05-11T23:18:03.933Z,13.80
2019-05-11T23:20:34.356Z,10.47
2019-05-11T23:23:05.414Z,8.03
2019-05-11T23:25:36.206Z,19.80
2019-05-11T23:28:06.820Z,8.43
2019-05-11T23:30:38.977Z,17.13
2019-05-11T23:33:09.530Z,12.30
2019-05-11T23:35:39.851Z,14.40
2019-05-11T23:38:10.266Z,8.50
2019-05-11T23:40:40.893Z,9.80
2019-05-11T23:43:11.239Z,15.20
2019-05-11T23:45:41.693Z,12.50
2019-05-11T23:48:11.929Z,11.67
2019-05-11T23:50:43.042Z,11.73
2019-05-11T23:53:13.711Z,13.27
2019-05-11T23:55:44.276Z,11.20
2019-05-11T23:58:15.092Z,8.10
